Time;durP1;ratioP1;P1;durP2;ratioP2;P2;SDS_P1;SDS_P2;PMS_P1;PMS_P2;Temp;Humidity;BMP_temperature;BMP_pressure;BME280_temperature;BME280_humidity;BME280_pressure;Samples;Min_cycle;Max_cycle;Signal;HPM_P1;HPM_P2
2022/12/03 00:00:23;;;;;;;19.10;10.73;;;1.80;99.90;;;;;;4115584;28;20198;-67
2022/12/03 00:02:24;;;;;;;21.57;11.17;;;1.90;99.90;;;;;;4115512;28;20205;-66
2022/12/03 00:04:24;;;;;;;18.00;10.53;;;1.90;99.90;;;;;;4113610;28;20180;-66
2022/12/03 00:06:25;;;;;;;20.77;10.80;;;1.90;99.90;;;;;;4113281;28;20217;-67
2022/12/03 00:08:26;;;;;;;19.03;10.23;;;1.80;99.90;;;;;;4114497;28;20249;-66
2022/12/03 00:10:26;;;;;;;19.83;10.97;;;1.90;99.90;;;;;;4115036;28;20527;-67
2022/12/03 00:12:27;;;;;;;21.97;10.83;;;1.80;99.90;;;;;;4115042;28;20172;-66
2022/12/03 00:14:28;;;;;;;20.93;10.70;;;1.90;99.90;;;;;;4114367;28;20189;-67
2022/12/03 00:16:28;;;;;;;23.47;11.73;;;1.90;99.90;;;;;;4115095;28;20213;-67
2022/12/03 00:18:29;;;;;;;19.30;10.20;;;1.90;99.90;;;;;;4114249;28;20323;-68
2022/12/03 00:20:30;;;;;;;23.10;10.90;;;1.90;99.90;;;;;;4115226;28;20660;-67
2022/12/03 00:22:30;;;;;;;18.47;10.30;;;2.00;99.90;;;;;;4113601;28;20785;-66
2022/12/03 00:24:31;;;;;;;23.90;11.37;;;2.10;99.90;;;;;;4114869;28;20665;-66
2022/12/03 00:26:32;;;;;;;21.23;9.93;;;2.10;99.90;;;;;;4115031;28;20211;-67
2022/12/03 00:28:32;;;;;;;20.93;10.40;;;2.10;99.90;;;;;;4115354;28;20193;-66
2022/12/03 00:30:33;;;;;;;18.77;9.93;;;2.10;99.90;;;;;;4114702;28;20190;-66
2022/12/03 00:32:34;;;;;;;18.00;10.03;;;2.00;99.90;;;;;;4112877;28;20214;-66
2022/12/03 00:34:34;;;;;;;20.80;10.57;;;1.80;99.90;;;;;;4114909;28;20195;-66
2022/12/03 00:36:35;;;;;;;17.37;9.60;;;1.70;99.90;;;;;;4115332;28;20257;-66
2022/12/03 00:38:36;;;;;;;19.80;9.23;;;1.70;99.90;;;;;;4113979;28;20229;-66
2022/12/03 00:40:37;;;;;;;20.47;10.83;;;1.70;99.90;;;;;;4115379;28;20246;-66
2022/12/03 00:42:37;;;;;;;15.80;9.37;;;1.90;99.90;;;;;;4113256;28;20205;-67
2022/12/03 00:44:38;;;;;;;20.10;9.63;;;2.00;99.90;;;;;;4114852;28;20670;-66
2022/12/03 00:46:39;;;;;;;16.40;9.93;;;2.10;99.90;;;;;;4114230;28;20224;-67
2022/12/03 00:48:39;;;;;;;20.77;11.23;;;2.10;99.90;;;;;;4101223;28;20220;-66
2022/12/03 00:50:40;;;;;;;18.87;9.57;;;2.20;99.90;;;;;;4099003;29;20202;-67
2022/12/03 00:52:40;;;;;;;18.23;10.17;;;2.30;99.90;;;;;;4098370;28;20184;-67
2022/12/03 00:54:41;;;;;;;19.37;11.20;;;2.00;99.90;;;;;;4098844;28;20659;-66
2022/12/03 00:56:42;;;;;;;16.87;9.73;;;2.10;99.90;;;;;;4099125;29;20348;-67
2022/12/03 00:58:43;;;;;;;17.80;10.03;;;2.00;99.90;;;;;;4099114;28;20199;-67
2022/12/03 01:00:43;;;;;;;19.77;11.13;;;2.10;99.90;;;;;;4098854;29;20242;-66
2022/12/03 01:02:44;;;;;;;19.67;9.63;;;2.00;99.90;;;;;;4097930;28;20197;-67
2022/12/03 01:04:45;;;;;;;15.80;9.33;;;1.90;99.90;;;;;;4098832;28;20190;-67
2022/12/03 01:06:45;;;;;;;19.67;10.20;;;1.90;99.90;;;;;;4099210;28;20257;-66
2022/12/03 01:08:46;;;;;;;16.70;8.90;;;1.70;99.90;;;;;;4098776;28;20215;-67
2022/12/03 01:10:46;;;;;;;18.67;9.00;;;1.70;99.90;;;;;;4098703;29;20192;-67
2022/12/03 01:12:47;;;;;;;18.20;10.23;;;1.60;99.90;;;;;;4098028;28;20204;-67
2022/12/03 01:14:48;;;;;;;16.07;9.53;;;1.70;99.90;;;;;;4113188;28;20192;-66
2022/12/03 01:16:49;;;;;;;18.73;9.43;;;1.70;99.90;;;;;;4098505;28;20214;-66
2022/12/03 01:18:51;;;;;;;17.50;9.87;;;1.80;99.90;;;;;;4098695;28;20598;-67
2022/12/03 01:20:51;;;;;;;18.77;9.07;;;1.90;99.90;;;;;;4098506;28;20250;-67
2022/12/03 01:22:52;;;;;;;19.03;10.03;;;2.00;99.90;;;;;;4098202;28;20439;-66
2022/12/03 01:24:53;;;;;;;19.70;10.13;;;2.00;99.90;;;;;;4112774;28;20264;-67
2022/12/03 01:26:55;;;;;;;22.97;10.57;;;2.00;99.90;;;;;;4114329;28;20255;-66
2022/12/03 01:28:56;;;;;;;14.17;8.80;;;2.10;99.90;;;;;;4114513;28;20341;-67
2022/12/03 01:33:16;;;;;;;16.90;8.87;;;1.90;99.90;;;;;;4113681;28;20781;-66
2022/12/03 01:35:16;;;;;;;17.13;8.63;;;2.00;99.90;;;;;;4114089;28;20430;-66
2022/12/03 01:37:20;;;;;;;19.77;9.27;;;2.00;99.90;;;;;;4114596;28;20254;-66
2022/12/03 01:39:20;;;;;;;14.40;8.47;;;2.00;99.90;;;;;;4113267;28;20591;-68
2022/12/03 01:41:23;;;;;;;15.63;8.30;;;2.00;99.90;;;;;;4114445;28;20434;-67
2022/12/03 01:43:24;;;;;;;16.67;8.77;;;1.90;99.90;;;;;;4112201;28;20179;-65
2022/12/03 01:45:25;;;;;;;13.60;7.70;;;1.80;99.90;;;;;;4114309;28;20647;-65
2022/12/03 01:47:34;;;;;;;15.47;8.53;;;1.80;99.90;;;;;;4113427;28;20222;-65
2022/12/03 01:49:44;;;;;;;12.07;7.40;;;1.60;99.90;;;;;;4129330;28;20664;-64
2022/12/03 01:51:46;;;;;;;12.43;6.73;;;1.50;99.90;;;;;;4112836;28;20418;-66
2022/12/03 01:53:47;;;;;;;13.87;7.77;;;1.50;99.90;;;;;;4113672;28;20427;-65
2022/12/03 01:55:48;;;;;;;12.07;6.77;;;1.60;99.90;;;;;;4112565;28;20491;-65
2022/12/03 01:57:59;;;;;;;11.07;7.27;;;1.60;99.90;;;;;;4114106;28;20242;-65
2022/12/03 02:00:00;;;;;;;12.80;7.43;;;1.70;99.90;;;;;;4114118;28;20719;-66
2022/12/03 02:02:12;;;;;;;12.10;7.33;;;1.60;99.90;;;;;;4113775;28;20505;-66
2022/12/03 02:04:15;;;;;;;13.60;7.03;;;1.40;99.90;;;;;;4113333;28;20496;-65
2022/12/03 02:06:21;;;;;;;13.97;6.80;;;1.40;99.90;;;;;;4112720;28;20453;-66
2022/12/03 02:08:30;;;;;;;12.03;7.00;;;1.50;99.90;;;;;;4112458;28;20947;-66
2022/12/03 02:10:34;;;;;;;12.67;7.40;;;1.40;99.90;;;;;;4112658;28;20422;-67
2022/12/03 02:12:41;;;;;;;13.70;7.80;;;1.40;99.90;;;;;;4112157;28;20432;-65
2022/12/03 02:14:42;;;;;;;14.23;8.00;;;1.40;99.90;;;;;;4113842;28;20473;-66
2022/12/03 02:16:45;;;;;;;15.20;8.20;;;1.40;99.90;;;;;;4112337;28;20460;-65
2022/12/03 02:18:46;;;;;;;13.73;7.53;;;1.30;99.90;;;;;;4113637;28;20939;-67
2022/12/03 02:20:59;;;;;;;12.80;7.77;;;1.30;99.90;;;;;;4113789;28;20460;-65
2022/12/03 02:23:13;;;;;;;10.80;6.70;;;1.40;99.90;;;;;;4111907;28;21029;-66
2022/12/03 02:25:18;;;;;;;13.37;7.10;;;1.50;99.90;;;;;;4112457;28;20469;-66
2022/12/03 02:27:19;;;;;;;11.60;6.37;;;1.50;99.90;;;;;;4112295;28;20474;-65
2022/12/03 02:29:21;;;;;;;15.73;7.93;;;1.40;99.90;;;;;;4112287;28;20420;-66
2022/12/03 02:31:22;;;;;;;11.10;7.00;;;1.40;99.90;;;;;;4112203;28;20196;-66
2022/12/03 02:33:23;;;;;;;13.20;7.33;;;1.60;99.90;;;;;;4111646;28;20503;-66
2022/12/03 02:35:34;;;;;;;15.93;7.17;;;1.70;99.90;;;;;;4113305;28;20443;-66
2022/12/03 02:37:36;;;;;;;14.17;7.80;;;1.70;99.90;;;;;;4112221;28;20661;-66
2022/12/03 02:39:40;;;;;;;13.43;6.93;;;1.70;99.90;;;;;;4113345;28;20447;-66
2022/12/03 02:44:00;;;;;;;14.40;8.47;;;1.70;99.90;;;;;;4112616;28;20445;-67
2022/12/03 02:46:02;;;;;;;11.47;6.70;;;1.60;99.90;;;;;;4111959;28;20450;-66
2022/12/03 02:48:10;;;;;;;14.20;7.83;;;1.60;99.90;;;;;;4111939;28;20304;-66
2022/12/03 02:50:14;;;;;;;15.07;7.93;;;1.60;99.90;;;;;;4113362;28;20412;-66
2022/12/03 02:52:15;;;;;;;14.23;8.23;;;1.50;99.90;;;;;;4112222;28;20540;-66
2022/12/03 02:54:16;;;;;;;14.47;8.07;;;1.60;99.90;;;;;;4113266;28;20506;-65
2022/12/03 02:56:22;;;;;;;13.20;6.93;;;1.80;99.90;;;;;;4116550;28;20701;-66
2022/12/03 02:58:24;;;;;;;13.47;6.67;;;1.80;99.90;;;;;;4105514;28;20242;-65
2022/12/03 03:00:25;;;;;;;12.07;6.70;;;1.80;99.90;;;;;;4099275;28;20437;-66
2022/12/03 03:02:27;;;;;;;14.57;8.20;;;1.70;99.90;;;;;;4114830;28;20459;-66
2022/12/03 03:04:27;;;;;;;16.87;7.77;;;1.70;99.90;;;;;;4098674;29;20187;-66
2022/12/03 03:06:28;;;;;;;15.43;7.80;;;1.70;99.90;;;;;;4100233;28;20451;-65
2022/12/03 03:08:29;;;;;;;12.67;7.33;;;1.70;99.90;;;;;;4114984;28;20185;-65
2022/12/03 03:10:32;;;;;;;14.33;7.63;;;1.70;99.90;;;;;;4115121;28;20208;-66
2022/12/03 03:12:33;;;;;;;11.13;7.13;;;1.70;99.90;;;;;;4098589;29;20421;-64
2022/12/03 03:14:34;;;;;;;13.67;7.47;;;1.60;99.90;;;;;;4114900;28;20434;-68
2022/12/03 03:16:35;;;;;;;11.63;7.37;;;1.50;99.90;;;;;;4100412;28;20208;-67
2022/12/03 03:18:36;;;;;;;14.80;8.07;;;1.50;99.90;;;;;;4114970;28;20447;-65
2022/12/03 03:20:37;;;;;;;15.07;8.00;;;1.60;99.90;;;;;;4099100;28;20199;-66
2022/12/03 03:22:41;;;;;;;15.33;8.93;;;1.50;99.90;;;;;;4098441;29;20180;-66
2022/12/03 03:24:41;;;;;;;12.43;7.67;;;1.50;99.90;;;;;;4099143;28;20517;-66
2022/12/03 03:26:42;;;;;;;16.90;8.67;;;1.30;99.90;;;;;;4098730;28;20502;-64
2022/12/03 03:28:48;;;;;;;17.27;9.27;;;1.50;99.90;;;;;;4112583;28;20193;-66
2022/12/03 03:30:49;;;;;;;19.57;9.00;;;1.50;99.90;;;;;;4114598;28;20445;-67
2022/12/03 03:32:50;;;;;;;17.97;8.83;;;1.60;99.90;;;;;;4114214;28;20607;-65
2022/12/03 03:34:51;;;;;;;17.30;8.50;;;1.70;99.90;;;;;;4114474;28;20431;-66
2022/12/03 03:36:51;;;;;;;14.67;8.17;;;1.70;99.90;;;;;;4115100;28;20677;-65
2022/12/03 03:38:52;;;;;;;15.30;9.33;;;1.70;99.90;;;;;;4116153;28;20503;-66
2022/12/03 03:40:53;;;;;;;15.37;7.50;;;1.80;99.90;;;;;;4114896;28;20191;-65
2022/12/03 03:42:55;;;;;;;14.23;7.73;;;1.90;99.90;;;;;;4114329;28;20222;-66
2022/12/03 03:44:57;;;;;;;14.27;8.40;;;1.80;99.90;;;;;;4114519;28;20516;-65
2022/12/03 03:46:58;;;;;;;13.10;8.17;;;1.80;99.90;;;;;;4114850;28;20475;-66
2022/12/03 03:49:00;;;;;;;14.80;9.03;;;1.90;99.90;;;;;;4116240;28;20529;-65
2022/12/03 03:51:07;;;;;;;14.00;7.47;;;1.90;99.90;;;;;;4115497;28;20433;-66
2022/12/03 03:53:10;;;;;;;15.67;8.63;;;1.70;99.90;;;;;;4114937;28;20413;-66
2022/12/03 03:55:11;;;;;;;16.47;8.40;;;1.50;99.90;;;;;;4115048;28;20492;-66
2022/12/03 03:57:12;;;;;;;16.23;8.87;;;1.50;99.90;;;;;;4114924;28;20844;-66
2022/12/03 03:59:13;;;;;;;15.83;8.13;;;1.50;99.90;;;;;;4116107;28;20454;-66
2022/12/03 04:01:16;;;;;;;20.33;9.63;;;1.60;99.90;;;;;;4114478;28;20183;-65
2022/12/03 04:03:16;;;;;;;17.70;8.63;;;1.60;99.90;;;;;;4113861;28;20448;-66
2022/12/03 04:05:20;;;;;;;16.93;9.37;;;1.70;99.90;;;;;;4115504;28;20434;-66
2022/12/03 04:07:21;;;;;;;16.10;8.77;;;1.50;99.90;;;;;;4114747;28;20294;-66
2022/12/03 04:09:22;;;;;;;14.00;8.13;;;1.50;99.90;;;;;;4115489;28;20456;-66
2022/12/03 04:13:42;;;;;;;16.33;9.60;;;1.60;99.90;;;;;;4114853;28;20234;-66
2022/12/03 04:15:43;;;;;;;17.03;9.70;;;1.70;99.90;;;;;;4115500;28;20451;-65
2022/12/03 04:17:43;;;;;;;20.13;9.93;;;1.40;99.90;;;;;;4115549;28;20195;-65
2022/12/03 04:19:44;;;;;;;19.37;9.17;;;1.40;99.90;;;;;;4115165;28;20191;-64
2022/12/03 04:24:06;;;;;;;19.53;9.93;;;1.40;99.90;;;;;;4114636;28;20199;-65
2022/12/03 04:30:45;;;;;;;20.53;10.87;;;1.20;99.90;;;;;;4115225;28;20410;-65
2022/12/03 04:37:25;;;;;;;22.83;10.90;;;1.40;99.90;;;;;;4114999;28;20417;-65
2022/12/03 04:39:25;;;;;;;19.17;9.63;;;1.30;99.90;;;;;;4113859;28;20445;-66
2022/12/03 04:41:26;;;;;;;20.77;10.70;;;1.30;99.90;;;;;;4115045;28;20199;-66
2022/12/03 04:43:28;;;;;;;19.07;9.70;;;1.40;99.90;;;;;;4112914;28;20268;-65
2022/12/03 04:45:29;;;;;;;21.30;11.10;;;1.40;99.90;;;;;;4115085;28;20207;-65
2022/12/03 04:47:29;;;;;;;22.20;10.23;;;1.40;99.90;;;;;;4114983;28;20472;-65
2022/12/03 04:49:30;;;;;;;20.90;10.37;;;1.40;99.90;;;;;;4114959;28;20243;-66
2022/12/03 04:51:31;;;;;;;21.73;9.97;;;1.40;99.90;;;;;;4114857;28;20196;-65
2022/12/03 04:53:32;;;;;;;21.37;11.57;;;1.30;99.90;;;;;;4114125;28;20567;-65
2022/12/03 04:55:32;;;;;;;20.67;10.60;;;1.20;99.90;;;;;;4114589;28;20202;-66
2022/12/03 04:57:33;;;;;;;18.00;9.37;;;1.10;99.90;;;;;;4114989;28;20186;-65
2022/12/03 04:59:35;;;;;;;26.57;12.73;;;1.10;99.90;;;;;;4097697;28;20189;-65
2022/12/03 05:01:36;;;;;;;20.77;10.43;;;1.00;99.90;;;;;;4114842;28;20197;-65
2022/12/03 05:03:36;;;;;;;25.20;11.73;;;0.90;99.90;;;;;;4101838;28;20433;-66
2022/12/03 05:05:37;;;;;;;23.57;11.30;;;1.00;99.90;;;;;;4098386;29;20207;-65
2022/12/03 05:07:38;;;;;;;23.80;11.23;;;1.20;99.90;;;;;;4098475;29;20221;-66
2022/12/03 05:09:38;;;;;;;26.33;12.53;;;1.30;99.90;;;;;;4098320;29;20191;-66
2022/12/03 05:11:39;;;;;;;22.67;11.33;;;1.10;99.90;;;;;;4098383;29;20250;-66
2022/12/03 05:13:40;;;;;;;21.30;10.87;;;1.10;99.90;;;;;;4112563;28;20606;-66
2022/12/03 05:15:41;;;;;;;23.53;10.43;;;1.10;99.90;;;;;;4098422;28;20223;-65
2022/12/03 05:17:41;;;;;;;28.00;11.17;;;1.20;99.90;;;;;;4097579;28;20207;-66
2022/12/03 05:22:01;;;;;;;22.40;9.97;;;1.30;99.90;;;;;;4098108;29;20655;-65
2022/12/03 05:24:02;;;;;;;26.23;11.87;;;1.30;99.90;;;;;;4097662;28;20459;-64
2022/12/03 05:26:03;;;;;;;25.00;10.90;;;1.20;99.90;;;;;;4098411;28;20302;-66
2022/12/03 05:28:04;;;;;;;20.00;10.17;;;1.30;99.90;;;;;;4112626;28;20525;-65
2022/12/03 05:30:07;;;;;;;22.20;10.77;;;1.40;99.90;;;;;;4113723;28;20190;-66
2022/12/03 05:32:07;;;;;;;27.83;13.30;;;1.40;99.90;;;;;;4114559;28;20427;-66
2022/12/03 05:34:08;;;;;;;19.67;10.53;;;1.30;99.90;;;;;;4114900;28;20496;-64
2022/12/03 05:36:09;;;;;;;23.03;11.07;;;1.20;99.90;;;;;;4115331;28;20246;-66
2022/12/03 05:38:09;;;;;;;24.63;12.17;;;1.00;99.90;;;;;;4114004;28;20194;-65
2022/12/03 05:40:11;;;;;;;25.60;12.33;;;1.20;99.90;;;;;;4112750;28;20725;-65
2022/12/03 05:44:31;;;;;;;26.97;12.07;;;1.10;99.90;;;;;;4113261;28;20551;-65
2022/12/03 05:46:32;;;;;;;33.83;13.93;;;1.10;99.90;;;;;;4114147;28;20456;-65
2022/12/03 05:48:33;;;;;;;26.43;12.70;;;1.20;99.90;;;;;;4113675;28;20223;-66
2022/12/03 05:50:36;;;;;;;30.60;12.90;;;1.20;99.90;;;;;;4113858;28;20609;-66
2022/12/03 05:52:37;;;;;;;28.67;11.90;;;1.20;99.90;;;;;;4112108;28;20199;-64
2022/12/03 05:54:38;;;;;;;27.13;12.73;;;1.40;99.90;;;;;;4113711;28;20503;-66
2022/12/03 05:56:38;;;;;;;28.70;13.17;;;1.20;99.90;;;;;;4114327;28;20211;-68
2022/12/03 05:58:39;;;;;;;29.70;13.40;;;1.10;99.90;;;;;;4113771;28;20181;-65
2022/12/03 06:00:40;;;;;;;24.50;11.53;;;1.10;99.90;;;;;;4113769;28;20186;-65
2022/12/03 06:02:41;;;;;;;26.30;12.67;;;1.10;99.90;;;;;;4113206;28;20278;-65
2022/12/03 06:04:41;;;;;;;26.17;12.37;;;1.30;99.90;;;;;;4112510;28;20191;-66
2022/12/03 06:06:42;;;;;;;23.97;11.77;;;1.30;99.90;;;;;;4113712;28;20455;-68
2022/12/03 06:08:43;;;;;;;21.63;11.37;;;1.30;99.90;;;;;;4113591;28;20217;-65
2022/12/03 06:10:43;;;;;;;20.93;11.03;;;1.30;99.90;;;;;;4113575;28;20549;-65
2022/12/03 06:12:44;;;;;;;24.33;12.50;;;1.10;99.90;;;;;;4112771;28;20175;-65
2022/12/03 06:14:44;;;;;;;22.20;11.40;;;1.00;99.90;;;;;;4113383;28;20187;-66
2022/12/03 06:16:45;;;;;;;24.20;12.70;;;1.00;99.90;;;;;;4113878;28;20213;-65
2022/12/03 06:18:46;;;;;;;30.97;13.87;;;1.00;99.90;;;;;;4113363;28;20184;-66
2022/12/03 06:20:47;;;;;;;28.97;13.10;;;0.90;99.90;;;;;;4113533;28;20187;-66
2022/12/03 06:22:47;;;;;;;25.33;12.03;;;0.90;99.90;;;;;;4112847;28;20193;-66
2022/12/03 06:24:49;;;;;;;28.43;12.63;;;0.80;99.90;;;;;;4113503;28;20179;-66
2022/12/03 06:26:49;;;;;;;29.37;13.40;;;0.90;99.90;;;;;;4113342;28;20209;-65
2022/12/03 06:28:50;;;;;;;30.53;13.10;;;0.90;99.90;;;;;;4112003;28;20455;-66
2022/12/03 06:30:51;;;;;;;24.70;12.17;;;0.90;99.90;;;;;;4113314;28;20190;-66
2022/12/03 06:32:51;;;;;;;24.00;12.97;;;0.70;99.90;;;;;;4112933;28;20212;-65
2022/12/03 06:34:52;;;;;;;24.37;12.20;;;0.90;99.90;;;;;;4113450;28;20183;-65
2022/12/03 06:36:53;;;;;;;29.83;13.63;;;1.00;99.90;;;;;;4113107;28;20199;-66
2022/12/03 06:38:54;;;;;;;26.53;12.60;;;1.10;99.90;;;;;;4113438;28;20186;-66
2022/12/03 06:40:54;;;;;;;31.17;14.10;;;1.20;99.90;;;;;;4113302;28;20188;-66
2022/12/03 06:42:55;;;;;;;23.47;11.80;;;1.20;99.90;;;;;;4113426;28;20500;-65
2022/12/03 06:44:56;;;;;;;23.13;11.50;;;1.00;99.90;;;;;;4112052;28;20215;-65
2022/12/03 06:46:56;;;;;;;21.37;11.37;;;1.10;99.90;;;;;;4113224;28;20207;-66
2022/12/03 06:48:57;;;;;;;26.20;12.10;;;1.00;99.90;;;;;;4113395;28;20197;-66
2022/12/03 06:50:58;;;;;;;23.53;10.77;;;0.90;99.90;;;;;;4113469;28;20267;-66
2022/12/03 06:52:58;;;;;;;28.50;12.30;;;1.00;99.90;;;;;;4112511;28;20182;-66
2022/12/03 06:54:59;;;;;;;22.20;10.90;;;1.00;99.90;;;;;;4111693;28;20664;-66
2022/12/03 06:57:00;;;;;;;26.43;13.03;;;1.00;99.90;;;;;;4112461;28;20209;-66
2022/12/03 06:59:01;;;;;;;34.20;14.80;;;1.00;99.90;;;;;;4113434;28;20971;-66
2022/12/03 07:01:01;;;;;;;23.07;11.57;;;1.00;99.90;;;;;;4112564;28;20191;-66
2022/12/03 07:03:02;;;;;;;27.77;12.90;;;1.10;99.90;;;;;;4112396;28;20198;-66
2022/12/03 07:05:03;;;;;;;30.90;12.33;;;1.10;99.90;;;;;;4113329;28;20214;-65
2022/12/03 07:07:04;;;;;;;44.03;22.47;;;1.00;99.90;;;;;;4111287;28;20212;-67
2022/12/03 07:09:05;;;;;;;24.73;11.00;;;0.90;99.90;;;;;;4098289;28;20438;-65
2022/12/03 07:13:25;;;;;;;33.03;13.43;;;1.00;99.90;;;;;;4096533;29;20551;-66
2022/12/03 07:15:26;;;;;;;28.50;13.33;;;1.10;99.90;;;;;;4096958;29;20428;-66
2022/12/03 07:17:26;;;;;;;24.70;10.30;;;1.20;99.90;;;;;;4097214;29;20199;-66
2022/12/03 07:19:27;;;;;;;28.03;12.60;;;1.30;99.90;;;;;;4111771;28;20232;-66
2022/12/03 07:21:27;;;;;;;23.97;11.23;;;1.40;99.90;;;;;;4096922;28;20278;-66
2022/12/03 07:23:28;;;;;;;28.37;12.73;;;1.00;99.90;;;;;;4099735;28;20219;-66
2022/12/03 07:25:29;;;;;;;25.30;11.73;;;1.10;99.90;;;;;;4112738;28;20278;-66
2022/12/03 07:27:29;;;;;;;23.93;11.47;;;1.10;99.90;;;;;;4112890;28;20220;-65
2022/12/03 07:29:31;;;;;;;27.57;12.00;;;1.00;99.90;;;;;;4111717;28;20191;-66
2022/12/03 07:31:31;;;;;;;26.73;11.37;;;0.90;99.90;;;;;;4111651;28;20187;-67
2022/12/03 07:33:32;;;;;;;23.57;11.97;;;1.10;99.90;;;;;;4095151;29;20516;-66
2022/12/03 07:35:33;;;;;;;22.67;11.37;;;1.20;99.90;;;;;;4112744;28;20198;-66
2022/12/03 07:37:34;;;;;;;26.43;11.57;;;1.10;99.90;;;;;;4112892;28;20242;-66
2022/12/03 07:39:34;;;;;;;26.20;12.10;;;1.30;99.90;;;;;;4111747;28;20192;-66
2022/12/03 07:41:35;;;;;;;27.77;13.10;;;1.20;99.90;;;;;;4115278;28;20505;-66
2022/12/03 07:43:36;;;;;;;31.57;13.40;;;1.30;99.90;;;;;;4115173;28;20366;-66
2022/12/03 07:45:36;;;;;;;28.17;13.47;;;1.10;99.90;;;;;;4116018;28;20188;-66
2022/12/03 07:47:37;;;;;;;28.57;12.90;;;1.30;99.90;;;;;;4115692;28;20210;-66
2022/12/03 07:49:37;;;;;;;22.60;10.77;;;1.40;99.90;;;;;;4115934;28;20212;-66
2022/12/03 07:51:38;;;;;;;25.93;11.13;;;1.60;99.90;;;;;;4115673;28;20189;-66
2022/12/03 07:53:39;;;;;;;26.27;11.37;;;1.60;99.90;;;;;;4115476;28;20194;-65
2022/12/03 07:55:40;;;;;;;24.17;10.93;;;1.50;99.90;;;;;;4115754;28;20205;-65
2022/12/03 07:57:40;;;;;;;26.17;12.50;;;1.60;99.90;;;;;;4115649;28;20188;-66
2022/12/03 07:59:41;;;;;;;24.47;11.30;;;1.40;99.90;;;;;;4115757;28;20187;-66
2022/12/03 08:01:42;;;;;;;24.90;12.03;;;1.40;99.90;;;;;;4115636;28;20184;-64
2022/12/03 08:03:43;;;;;;;28.87;11.90;;;1.60;99.90;;;;;;4115165;28;20201;-66
2022/12/03 08:05:58;;;;;;;24.57;11.43;;;1.60;99.90;;;;;;4082539;28;20286;-66
2022/12/03 08:08:00;;;;;;;24.47;12.33;;;1.40;99.90;;;;;;4115372;28;20466;-66
2022/12/03 08:10:00;;;;;;;43.00;22.93;;;1.30;99.90;;;;;;4115338;28;20179;-66
2022/12/03 08:12:14;;;;;;;28.37;11.43;;;1.40;99.90;;;;;;4115199;28;20803;-66
2022/12/03 08:14:19;;;;;;;28.37;13.53;;;1.50;99.90;;;;;;4114720;28;20255;-66
2022/12/03 08:16:21;;;;;;;24.97;11.87;;;1.50;99.90;;;;;;4114106;28;20530;-66
2022/12/03 08:18:22;;;;;;;25.73;12.23;;;1.40;99.90;;;;;;4114101;28;20506;-66
2022/12/03 08:20:38;;;;;;;24.93;12.60;;;1.50;99.90;;;;;;4115700;28;20435;-65
2022/12/03 08:22:41;;;;;;;25.00;11.03;;;1.60;99.90;;;;;;4114670;28;20231;-66
2022/12/03 08:24:42;;;;;;;20.90;10.37;;;1.70;99.90;;;;;;4115031;28;20423;-65
2022/12/03 08:26:46;;;;;;;25.37;12.33;;;1.70;99.90;;;;;;4114870;28;20462;-66
2022/12/03 08:28:46;;;;;;;29.93;13.30;;;1.60;99.90;;;;;;4113697;28;21068;-66
2022/12/03 08:31:11;;;;;;;23.87;11.40;;;1.70;99.90;;;;;;4114897;28;20544;-66
2022/12/03 08:33:34;;;;;;;43.17;13.17;;;1.70;99.90;;;;;;4113460;28;20180;-66
2022/12/03 08:35:34;;;;;;;31.27;12.13;;;1.70;99.90;;;;;;4114645;28;20489;-66
2022/12/03 08:37:35;;;;;;;33.10;15.83;;;1.70;99.90;;;;;;4114097;28;20431;-67
2022/12/03 08:39:53;;;;;;;22.53;11.00;;;1.70;99.90;;;;;;4113576;28;20190;-67
2022/12/03 08:44:27;;;;;;;27.73;12.43;;;1.60;99.90;;;;;;4114243;28;20457;-67
2022/12/03 08:46:28;;;;;;;25.77;11.70;;;1.70;99.90;;;;;;4114888;28;20852;-66
2022/12/03 08:48:37;;;;;;;23.50;11.80;;;1.70;99.90;;;;;;4097370;29;20483;-66
2022/12/03 08:50:40;;;;;;;25.60;12.73;;;2.00;99.90;;;;;;4114470;28;20192;-66
2022/12/03 08:52:41;;;;;;;36.27;17.10;;;2.10;99.90;;;;;;4111683;28;20440;-66
2022/12/03 08:54:48;;;;;;;35.47;16.57;;;2.20;99.90;;;;;;4114494;28;20431;-67
2022/12/03 08:56:49;;;;;;;42.23;17.70;;;2.30;99.90;;;;;;4113449;28;20289;-65
2022/12/03 08:58:57;;;;;;;31.97;15.10;;;2.40;99.90;;;;;;4114781;28;20459;-66
2022/12/03 09:01:38;;;;;;;20.50;10.67;;;2.20;99.90;;;;;;4113304;28;20195;-66
2022/12/03 09:03:48;;;;;;;27.87;11.30;;;2.10;99.90;;;;;;4096532;29;20482;-67
2022/12/03 09:05:48;;;;;;;26.40;12.43;;;1.70;99.90;;;;;;4114309;28;20448;-66
2022/12/03 09:07:49;;;;;;;39.50;18.30;;;1.40;99.90;;;;;;4114275;28;20597;-65
2022/12/03 09:09:50;;;;;;;28.00;11.93;;;1.30;99.90;;;;;;4114409;28;20190;-66
2022/12/03 09:11:51;;;;;;;30.80;12.33;;;1.40;99.90;;;;;;4114211;28;20209;-67
2022/12/03 09:13:52;;;;;;;24.80;12.17;;;1.70;99.90;;;;;;4112419;28;20193;-66
2022/12/03 09:15:52;;;;;;;45.17;14.60;;;1.70;99.90;;;;;;4114017;28;20540;-67
2022/12/03 09:17:53;;;;;;;23.07;11.60;;;1.80;99.90;;;;;;4102389;28;20198;-66
2022/12/03 09:19:54;;;;;;;23.23;11.63;;;1.70;99.90;;;;;;4112952;28;20283;-65
2022/12/03 09:21:54;;;;;;;22.73;11.37;;;1.80;99.90;;;;;;4111587;28;20297;-67
2022/12/03 09:23:55;;;;;;;23.13;11.67;;;1.80;99.90;;;;;;4112251;28;20696;-66
2022/12/03 09:25:56;;;;;;;25.07;10.50;;;2.00;99.90;;;;;;4114039;28;20217;-66
2022/12/03 09:27:56;;;;;;;21.77;10.27;;;2.20;99.90;;;;;;4113855;28;20220;-66
2022/12/03 09:29:57;;;;;;;16.93;8.70;;;2.30;99.90;;;;;;4114066;28;20192;-67
2022/12/03 09:31:58;;;;;;;24.47;10.90;;;2.20;99.90;;;;;;4113799;28;20198;-65
2022/12/03 09:34:01;;;;;;;21.77;10.00;;;2.30;99.90;;;;;;4112060;28;20188;-67
2022/12/03 09:36:02;;;;;;;36.50;14.10;;;2.20;99.90;;;;;;4113253;28;20206;-67
2022/12/03 09:38:03;;;;;;;27.23;11.97;;;1.90;99.90;;;;;;4112701;28;20443;-66
2022/12/03 09:40:05;;;;;;;23.30;11.10;;;1.70;99.90;;;;;;4114127;28;20201;-67
2022/12/03 09:42:07;;;;;;;24.03;11.40;;;1.80;99.90;;;;;;4114002;28;20846;-67
2022/12/03 09:44:09;;;;;;;24.17;11.43;;;2.00;99.90;;;;;;4113157;28;20842;-66
2022/12/03 09:46:09;;;;;;;30.10;12.97;;;2.20;99.90;;;;;;4112699;28;20481;-66
2022/12/03 09:48:13;;;;;;;28.30;13.33;;;2.10;99.90;;;;;;4112354;28;20471;-66
2022/12/03 09:50:24;;;;;;;35.20;11.47;;;2.10;99.90;;;;;;4112493;28;20668;-66
2022/12/03 09:52:27;;;;;;;85.17;43.00;;;1.90;99.90;;;;;;4113782;28;20903;-67
2022/12/03 09:54:29;;;;;;;32.97;17.70;;;1.80;99.90;;;;;;4113061;28;20511;-67
2022/12/03 09:56:32;;;;;;;52.97;22.57;;;1.70;99.90;;;;;;4112579;28;20479;-66
2022/12/03 09:58:33;;;;;;;32.37;12.93;;;1.90;99.90;;;;;;4113680;28;20463;-66
2022/12/03 10:00:33;;;;;;;23.63;11.83;;;2.00;99.90;;;;;;4113705;28;20438;-66
2022/12/03 10:02:34;;;;;;;29.37;11.00;;;1.80;99.90;;;;;;4112122;28;20216;-66
2022/12/03 10:04:35;;;;;;;30.30;13.97;;;1.80;99.90;;;;;;4112077;28;20180;-66
2022/12/03 10:06:37;;;;;;;65.37;14.97;;;1.80;99.90;;;;;;4114183;28;20289;-66
2022/12/03 10:08:37;;;;;;;21.13;8.93;;;1.80;99.90;;;;;;4112400;28;20229;-66
2022/12/03 10:10:40;;;;;;;28.20;12.17;;;1.70;99.90;;;;;;4113436;28;20436;-67
2022/12/03 10:12:41;;;;;;;20.47;10.00;;;1.80;99.90;;;;;;4111570;28;20560;-65
2022/12/03 10:14:42;;;;;;;33.10;15.17;;;1.80;99.90;;;;;;4113489;28;20484;-66
2022/12/03 10:16:43;;;;;;;26.63;13.67;;;1.90;99.90;;;;;;4112385;28;20208;-66
2022/12/03 10:18:49;;;;;;;20.43;9.03;;;2.10;99.90;;;;;;4113573;28;20565;-66
2022/12/03 10:20:51;;;;;;;25.03;9.17;;;2.30;99.90;;;;;;4112249;28;20173;-65
2022/12/03 10:22:52;;;;;;;20.63;8.83;;;2.40;99.90;;;;;;4127769;28;20435;-66
2022/12/03 10:25:13;;;;;;;24.70;10.07;;;2.20;99.90;;;;;;4112270;28;20442;-66
2022/12/03 10:27:30;;;;;;;17.50;9.33;;;1.90;99.90;;;;;;4113422;28;20215;-66
2022/12/03 10:29:34;;;;;;;16.40;8.13;;;1.80;99.90;;;;;;4113612;28;20434;-67
2022/12/03 10:31:35;;;;;;;18.40;9.73;;;1.70;99.90;;;;;;4113508;28;20423;-67
2022/12/03 10:33:43;;;;;;;19.90;9.93;;;1.50;99.90;;;;;;4112757;28;20490;-67
2022/12/03 10:35:44;;;;;;;19.93;10.17;;;1.50;99.90;;;;;;4099317;28;20586;-65
2022/12/03 10:38:01;;;;;;;37.03;13.27;;;1.80;99.90;;;;;;4111510;28;20434;-64
2022/12/03 10:40:10;;;;;;;18.40;9.40;;;1.80;99.90;;;;;;4112705;28;20190;-65
2022/12/03 10:42:15;;;;;;;23.30;11.67;;;1.90;99.90;;;;;;4097832;28;20512;-68
2022/12/03 10:44:20;;;;;;;31.50;14.43;;;1.70;99.90;;;;;;4112232;28;20563;-67
2022/12/03 10:46:21;;;;;;;17.10;9.40;;;1.70;99.90;;;;;;4111672;28;20982;-64
2022/12/03 10:48:26;;;;;;;21.67;11.00;;;1.90;99.90;;;;;;4111720;28;20483;-65
2022/12/03 10:50:26;;;;;;;31.17;15.40;;;2.10;99.90;;;;;;4113042;28;20502;-65
2022/12/03 10:52:27;;;;;;;29.27;15.03;;;2.30;99.90;;;;;;4112896;28;20436;-67
2022/12/03 10:54:30;;;;;;;21.87;10.67;;;2.40;99.90;;;;;;4110784;28;20210;-67
2022/12/03 10:56:31;;;;;;;21.50;10.83;;;2.50;99.90;;;;;;4111346;28;20272;-67
2022/12/03 10:58:37;;;;;;;19.40;8.97;;;2.60;99.90;;;;;;4111431;28;20433;-67